createdAt,value
2022-09-21T00:01:27.517Z,8.95
2022-09-21T00:03:56.903Z,7.28
2022-09-21T00:06:26.352Z,8.95
2022-09-21T00:08:54.898Z,7.07
2022-09-21T00:11:26.606Z,8.52
2022-09-21T00:13:57.849Z,7.82
2022-09-21T00:16:25.805Z,6.93
2022-09-21T00:18:54.043Z,7.28
2022-09-21T00:21:21.987Z,6.47
2022-09-21T00:23:50.058Z,8.13
2022-09-21T00:26:19.794Z,7.20
2022-09-21T00:28:48.730Z,6.72
2022-09-21T00:31:18.745Z,8.55
2022-09-21T00:33:47.034Z,6.22
2022-09-21T00:36:17.769Z,6.97
2022-09-21T00:38:47.037Z,6.57
2022-09-21T00:41:14.952Z,8.20
2022-09-21T00:43:48.041Z,5.70
2022-09-21T00:46:24.281Z,5.97
2022-09-21T00:48:52.144Z,8.38
2022-09-21T00:51:20.122Z,7.47
2022-09-21T00:53:52.744Z,5.18
2022-09-21T00:56:20.889Z,7.32
2022-09-21T00:58:52.317Z,5.85
2022-09-21T01:01:22.207Z,7.93
2022-09-21T01:03:51.345Z,5.57
2022-09-21T01:06:21.685Z,6.75
2022-09-21T01:08:54.187Z,7.28
2022-09-21T01:14:12.501Z,7.95
2022-09-21T01:16:48.874Z,6.85
2022-09-21T01:19:32.485Z,8.10
2022-09-21T01:22:08.334Z,5.22
2022-09-21T01:24:58.063Z,10.00
2022-09-21T01:28:05.353Z,6.97
2022-09-21T01:30:37.917Z,7.45
2022-09-21T01:35:41.660Z,4.30
2022-09-21T01:38:12.546Z,6.15
2022-09-21T01:40:44.890Z,6.35
2022-09-21T01:43:16.862Z,5.47
2022-09-21T01:45:50.203Z,4.93
2022-09-21T01:48:22.317Z,4.00
2022-09-21T01:50:55.034Z,7.25
2022-09-21T01:53:29.549Z,5.53
2022-09-21T01:56:00.782Z,6.25
2022-09-21T01:58:34.528Z,5.68
2022-09-21T02:01:06.373Z,8.45
2022-09-21T02:03:38.259Z,6.97
2022-09-21T02:06:07.969Z,6.80
2022-09-21T02:08:37.277Z,7.93
2022-09-21T02:11:06.897Z,4.03
2022-09-21T02:13:37.674Z,4.32
2022-09-21T02:16:21.830Z,6.35
2022-09-21T02:18:58.735Z,8.32
2022-09-21T02:21:33.093Z,5.47
2022-09-21T02:24:09.530Z,7.43
2022-09-21T02:26:46.415Z,5.65
2022-09-21T02:29:20.718Z,7.07
2022-09-21T02:31:56.393Z,4.07
2022-09-21T02:34:29.630Z,5.93
2022-09-21T02:37:03.604Z,5.75
2022-09-21T02:39:35.790Z,7.57
2022-09-21T02:42:10.331Z,3.97
2022-09-21T02:44:42.881Z,5.47
2022-09-21T02:49:46.910Z,4.95
2022-09-21T02:52:17.479Z,7.88
2022-09-21T02:54:50.599Z,5.22
2022-09-21T02:57:21.706Z,6.03
2022-09-21T02:59:50.382Z,4.68
2022-09-21T03:02:19.798Z,7.35
2022-09-21T03:04:49.967Z,4.15
2022-09-21T03:07:18.371Z,4.85
2022-09-21T03:09:46.535Z,4.85
2022-09-21T03:12:14.406Z,5.75
2022-09-21T03:14:42.554Z,4.57
2022-09-21T03:17:10.466Z,4.65
2022-09-21T03:19:39.716Z,5.03
2022-09-21T03:22:07.596Z,4.78
2022-09-21T03:24:47.624Z,4.43
2022-09-21T03:27:17.465Z,8.05
2022-09-21T03:29:45.334Z,5.20
2022-09-21T03:32:13.827Z,4.47
2022-09-21T03:34:43.496Z,7.80
2022-09-21T03:37:11.707Z,3.22
2022-09-21T03:39:39.570Z,5.25
2022-09-21T03:42:09.143Z,7.85
2022-09-21T03:44:38.195Z,4.70
2022-09-21T03:47:06.772Z,5.00
2022-09-21T03:49:35.078Z,6.35
2022-09-21T03:52:04.978Z,3.80
2022-09-21T03:54:32.834Z,6.25
2022-09-21T03:57:00.854Z,4.70
2022-09-21T03:59:28.737Z,4.72
2022-09-21T04:01:56.605Z,7.45
2022-09-21T04:04:24.621Z,5.65
2022-09-21T04:06:52.726Z,5.38
2022-09-21T04:09:21.984Z,6.68
2022-09-21T04:11:49.833Z,5.22
2022-09-21T04:14:17.701Z,6.15
2022-09-21T04:16:45.548Z,6.95
2022-09-21T04:19:13.634Z,4.03
2022-09-21T04:21:41.509Z,4.50
2022-09-21T04:24:09.395Z,4.38
2022-09-21T04:26:40.753Z,6.22
2022-09-21T04:29:08.636Z,4.75
2022-09-21T04:31:36.525Z,8.55
2022-09-21T04:34:04.394Z,5.70
2022-09-21T04:36:36.438Z,7.70
2022-09-21T04:41:33.071Z,5.85
2022-09-21T04:44:02.692Z,6.65
2022-09-21T04:46:30.647Z,7.38
2022-09-21T04:48:58.566Z,6.53
2022-09-21T04:51:26.420Z,6.10
2022-09-21T04:53:54.301Z,5.85
2022-09-21T04:56:22.162Z,5.65
2022-09-21T04:58:50.033Z,5.93
2022-09-21T05:01:19.285Z,6.07
2022-09-21T05:03:47.307Z,5.80
2022-09-21T05:06:15.244Z,8.07
2022-09-21T05:09:08.961Z,6.25
2022-09-21T05:11:36.802Z,7.22
2022-09-21T05:14:04.980Z,7.53
2022-09-21T05:16:34.694Z,6.40
2022-09-21T05:19:02.664Z,6.78
2022-09-21T05:21:31.647Z,7.88
2022-09-21T05:23:59.925Z,7.97
2022-09-21T05:26:27.826Z,6.18
2022-09-21T05:28:56.326Z,5.50
2022-09-21T05:31:37.969Z,5.45
2022-09-21T05:34:13.728Z,7.25
2022-09-21T05:36:47.610Z,6.20
2022-09-21T05:39:16.097Z,6.32
2022-09-21T05:41:44.607Z,6.68
2022-09-21T05:44:14.968Z,10.02
2022-09-21T05:46:55.376Z,6.80
2022-09-21T05:49:34.504Z,7.47
2022-09-21T05:52:12.546Z,8.07
2022-09-21T05:54:52.983Z,7.78
2022-09-21T05:57:30.633Z,10.52
2022-09-21T06:00:08.556Z,9.65
2022-09-21T06:02:51.547Z,8.70
2022-09-21T06:05:20.261Z,8.05
2022-09-21T06:07:48.110Z,7.53
2022-09-21T06:10:16.736Z,8.02
2022-09-21T06:12:44.720Z,8.35
2022-09-21T06:15:14.803Z,9.65
2022-09-21T06:17:44.435Z,9.88
2022-09-21T06:20:12.335Z,8.52
2022-09-21T06:22:40.250Z,9.73
2022-09-21T06:25:08.950Z,11.52
2022-09-21T06:27:36.856Z,10.10
2022-09-21T06:30:05.302Z,7.53
2022-09-21T06:32:33.152Z,10.50
2022-09-21T06:35:02.500Z,9.45
2022-09-21T06:37:30.350Z,11.48
2022-09-21T06:39:58.452Z,8.88
2022-09-21T06:42:27.778Z,12.88
2022-09-21T06:44:56.058Z,10.35
2022-09-21T06:47:23.987Z,14.07
2022-09-21T06:49:53.931Z,11.10
2022-09-21T06:52:23.194Z,11.27
2022-09-21T06:54:51.048Z,11.60
2022-09-21T06:57:18.896Z,9.25
2022-09-21T06:59:46.842Z,11.10
2022-09-21T07:02:14.835Z,11.90
2022-09-21T07:04:43.325Z,13.00
2022-09-21T07:07:11.238Z,12.93
2022-09-21T07:12:29.563Z,12.15
2022-09-21T07:14:57.485Z,7.85
2022-09-21T07:17:25.354Z,12.40
2022-09-21T07:19:53.217Z,13.10
2022-09-21T07:22:21.062Z,10.15
2022-09-21T07:24:50.344Z,12.35
2022-09-21T07:27:18.217Z,9.23
2022-09-21T07:29:46.072Z,9.13
2022-09-21T07:32:14.044Z,7.57
2022-09-21T07:34:42.039Z,7.95
2022-09-21T07:37:09.906Z,7.38
2022-09-21T07:39:38.882Z,7.20
2022-09-21T07:42:08.549Z,8.13
2022-09-21T07:44:36.448Z,10.05
2022-09-21T07:47:04.390Z,10.02
2022-09-21T07:49:32.319Z,6.60
2022-09-21T07:52:03.834Z,10.30
2022-09-21T07:54:32.496Z,12.27
2022-09-21T07:57:18.129Z,7.10
2022-09-21T07:59:47.422Z,8.85
2022-09-21T08:02:15.335Z,9.23
2022-09-21T08:04:43.205Z,6.80
2022-09-21T08:07:11.034Z,9.95
2022-09-21T08:09:38.878Z,7.97
2022-09-21T08:12:06.962Z,8.25
2022-09-21T08:14:35.368Z,9.63
2022-09-21T08:17:05.217Z,5.63
2022-09-21T08:19:33.164Z,9.40
2022-09-21T08:22:01.308Z,8.45
2022-09-21T08:24:29.296Z,8.93
2022-09-21T08:26:57.790Z,4.30
2022-09-21T08:29:26.169Z,8.32
2022-09-21T08:31:54.347Z,9.02
2022-09-21T08:34:24.247Z,8.40
2022-09-21T08:36:55.516Z,6.78
2022-09-21T08:39:24.496Z,4.13
2022-09-21T08:42:11.769Z,7.70
2022-09-21T08:44:42.055Z,8.88
2022-09-21T08:47:16.564Z,6.18
2022-09-21T08:49:50.356Z,6.53
2022-09-21T08:52:20.751Z,7.72
2022-09-21T08:54:52.818Z,8.82
2022-09-21T08:57:22.319Z,5.05
2022-09-21T08:59:51.811Z,5.40
2022-09-21T09:02:41.594Z,5.10
2022-09-21T09:05:28.409Z,4.03
2022-09-21T09:08:19.430Z,5.05
2022-09-21T09:11:02.455Z,6.20
2022-09-21T09:13:44.443Z,5.10
2022-09-21T09:16:19.357Z,5.47
2022-09-21T09:18:52.699Z,3.72
2022-09-21T09:21:31.290Z,7.18
2022-09-21T09:24:04.178Z,5.18
2022-09-21T09:26:39.822Z,6.35
2022-09-21T09:29:15.561Z,5.05
2022-09-21T09:31:43.926Z,5.13
2022-09-21T09:34:17.332Z,8.23
2022-09-21T09:36:58.719Z,8.80
2022-09-21T09:39:29.583Z,6.97
2022-09-21T09:42:12.898Z,9.43
2022-09-21T09:45:10.474Z,6.13
2022-09-21T09:47:48.531Z,5.43
2022-09-21T09:50:22.114Z,5.18
2022-09-21T09:52:54.177Z,5.10
2022-09-21T09:55:24.943Z,6.95
2022-09-21T09:57:56.029Z,4.57
2022-09-21T10:00:24.334Z,3.13
2022-09-21T10:02:53.634Z,7.28
2022-09-21T10:05:24.613Z,7.22
2022-09-21T10:07:54.078Z,6.25
2022-09-21T10:10:42.141Z,4.43
2022-09-21T10:13:15.171Z,4.63
2022-09-21T10:15:46.162Z,4.93
2022-09-21T10:18:21.129Z,4.20
2022-09-21T10:21:04.438Z,5.93
2022-09-21T10:23:34.871Z,6.60
2022-09-21T10:26:06.254Z,6.00
2022-09-21T10:28:34.991Z,5.95
2022-09-21T10:31:18.977Z,5.55
2022-09-21T10:33:53.619Z,4.95
2022-09-21T10:36:34.023Z,3.20
2022-09-21T10:39:24.434Z,5.68
2022-09-21T10:41:58.817Z,6.07
2022-09-21T10:44:30.188Z,6.68
2022-09-21T10:47:01.037Z,5.25
2022-09-21T10:49:30.600Z,7.15
2022-09-21T10:52:00.386Z,5.50
2022-09-21T10:54:33.954Z,3.90
2022-09-21T10:57:04.886Z,4.43
2022-09-21T10:59:34.359Z,3.22
2022-09-21T11:02:04.165Z,4.32
2022-09-21T11:04:43.256Z,3.47
2022-09-21T11:07:19.680Z,5.35
2022-09-21T11:09:59.837Z,3.30
2022-09-21T11:12:37.659Z,5.22
2022-09-21T11:15:16.748Z,5.45
2022-09-21T11:17:49.267Z,3.30
2022-09-21T11:20:26.170Z,3.35
2022-09-21T11:23:04.222Z,6.28
2022-09-21T11:25:41.402Z,8.27
2022-09-21T11:28:16.637Z,5.45
2022-09-21T11:31:05.246Z,5.00
2022-09-21T11:33:49.528Z,4.82
2022-09-21T11:36:25.239Z,4.50
2022-09-21T11:39:00.365Z,2.58
2022-09-21T11:41:51.356Z,5.55
2022-09-21T11:44:26.492Z,6.07
2022-09-21T11:47:06.665Z,4.78
2022-09-21T11:50:29.740Z,6.63
2022-09-21T11:53:19.214Z,3.80
2022-09-21T11:56:06.409Z,4.13
2022-09-21T11:58:43.009Z,4.88
2022-09-21T12:01:26.994Z,3.33
2022-09-21T12:04:11.691Z,3.15
2022-09-21T12:06:52.959Z,4.57
2022-09-21T12:09:49.270Z,2.95
2022-09-21T12:12:23.741Z,5.30
2022-09-21T12:15:02.305Z,3.88
2022-09-21T12:17:45.660Z,4.07
2022-09-21T12:20:22.975Z,3.63
2022-09-21T12:22:57.018Z,3.25
2022-09-21T12:25:28.357Z,4.78
2022-09-21T12:28:02.094Z,3.80
2022-09-21T12:30:33.252Z,5.97
2022-09-21T12:33:05.686Z,3.88
2022-09-21T12:35:39.256Z,4.28
2022-09-21T12:38:16.424Z,3.65
2022-09-21T12:40:51.666Z,3.92
2022-09-21T12:43:30.109Z,4.07
2022-09-21T12:46:02.899Z,4.55
2022-09-21T12:48:33.930Z,3.60
2022-09-21T12:51:07.370Z,3.35
2022-09-21T12:53:38.789Z,5.88
2022-09-21T12:56:12.654Z,3.92
2022-09-21T12:58:51.973Z,5.47
2022-09-21T13:01:32.366Z,2.20
2022-09-21T13:04:27.628Z,4.05
2022-09-21T13:07:25.187Z,6.97
2022-09-21T13:09:54.057Z,5.10
2022-09-21T13:12:25.659Z,3.28
2022-09-21T13:14:59.840Z,3.30
2022-09-21T13:17:32.064Z,4.35
